N545CW KOAK-KSTS
Flight info
| Callsign | N545CW |
|---|---|
| Flight time | 1h 7m |
| Altitude | 6000 |
| Route | COMMO V107 PYE |
| Aircraft | C172/L-V/N |
Departure
| Time | 2026-04-25 05:01 |
|---|---|
| Airport | San Francisco Bay Oakland International Airport (KOAK) |
Arrival
| Time | 2026-04-25 06:09 |
|---|---|
| Airport | Charles M. Schulz Sonoma County Airport (KSTS) |
| Time | Latitude | Longitude | Altitude | Speed | Heading |
|---|---|---|---|---|---|
| 2026-04-25 04:44 | 37.72727 | -122.20736 | 9 ft | 0 kts | 307° |
| 2026-04-25 04:56 | 37.72738 | -122.20757 | 9 ft | 6 kts | 293° |
| 2026-04-25 04:57 | 37.72735 | -122.20787 | 9 ft | 4 kts | 241° |
| 2026-04-25 04:57 | 37.72724 | -122.20837 | 9 ft | 12 kts | 264° |
| 2026-04-25 04:57 | 37.72699 | -122.20819 | 9 ft | 11 kts | 108° |
| 2026-04-25 04:57 | 37.72675 | -122.20745 | 9 ft | 7 kts | 113° |
| 2026-04-25 04:58 | 37.72660 | -122.20700 | 9 ft | 5 kts | 112° |
| 2026-04-25 04:58 | 37.72639 | -122.20633 | 9 ft | 11 kts | 112° |
| 2026-04-25 04:58 | 37.72604 | -122.20528 | 9 ft | 10 kts | 116° |
| 2026-04-25 04:58 | 37.72582 | -122.20468 | 9 ft | 1 kts | 126° |
| 2026-04-25 04:59 | 37.72565 | -122.20452 | 9 ft | 0 kts | 178° |
| 2026-04-25 05:00 | 37.72519 | -122.20466 | 9 ft | 14 kts | 203° |
| 2026-04-25 05:00 | 37.72519 | -122.20584 | 9 ft | 31 kts | 292° |
| 2026-04-25 05:01 | 37.72668 | -122.21040 | 89 ft | 66 kts | 290° |
| 2026-04-25 05:01 | 37.72858 | -122.21570 | 333 ft | 67 kts | 293° |
| 2026-04-25 05:01 | 37.73078 | -122.22079 | 572 ft | 67 kts | 298° |
| 2026-04-25 05:01 | 37.73433 | -122.22453 | 794 ft | 71 kts | 329° |
| 2026-04-25 05:02 | 37.73879 | -122.22694 | 1029 ft | 71 kts | 329° |
| 2026-04-25 05:02 | 37.74323 | -122.22947 | 1266 ft | 69 kts | 330° |
| 2026-04-25 05:02 | 37.74762 | -122.23197 | 1487 ft | 69 kts | 328° |
| 2026-04-25 05:02 | 37.75193 | -122.23476 | 1703 ft | 70 kts | 329° |
| 2026-04-25 05:03 | 37.75633 | -122.23712 | 1916 ft | 70 kts | 332° |
| 2026-04-25 05:03 | 37.76075 | -122.23974 | 2133 ft | 69 kts | 329° |
| 2026-04-25 05:03 | 37.76496 | -122.24259 | 2335 ft | 70 kts | 328° |
| 2026-04-25 05:03 | 37.76925 | -122.24545 | 2542 ft | 70 kts | 328° |
| 2026-04-25 05:04 | 37.77353 | -122.24835 | 2743 ft | 70 kts | 328° |
| 2026-04-25 05:04 | 37.77778 | -122.25143 | 2941 ft | 70 kts | 328° |
| 2026-04-25 05:04 | 37.78221 | -122.25442 | 3017 ft | 76 kts | 330° |
| 2026-04-25 05:04 | 37.78727 | -122.25768 | 3044 ft | 86 kts | 330° |
| 2026-04-25 05:05 | 37.79282 | -122.26135 | 3039 ft | 93 kts | 330° |
| 2026-04-25 05:05 | 37.79870 | -122.26525 | 3051 ft | 96 kts | 329° |
| 2026-04-25 05:05 | 37.80380 | -122.26949 | 3354 ft | 82 kts | 321° |
| 2026-04-25 05:05 | 37.80836 | -122.27475 | 3419 ft | 95 kts | 306° |
| 2026-04-25 05:06 | 37.81249 | -122.28055 | 3689 ft | 86 kts | 302° |
| 2026-04-25 05:06 | 37.81583 | -122.28726 | 3828 ft | 89 kts | 300° |
| 2026-04-25 05:06 | 37.81726 | -122.29386 | 4120 ft | 77 kts | 288° |
| 2026-04-25 05:06 | 37.81853 | -122.30120 | 4225 ft | 86 kts | 285° |
| 2026-04-25 05:07 | 37.81913 | -122.30823 | 4428 ft | 85 kts | 277° |
| 2026-04-25 05:07 | 37.81879 | -122.31605 | 4594 ft | 85 kts | 275° |
| 2026-04-25 05:07 | 37.81984 | -122.32330 | 4737 ft | 86 kts | 291° |
| 2026-04-25 05:07 | 37.82170 | -122.33024 | 4953 ft | 80 kts | 297° |
| 2026-04-25 05:08 | 37.82421 | -122.33682 | 5077 ft | 85 kts | 300° |
| 2026-04-25 05:08 | 37.82651 | -122.34352 | 5267 ft | 82 kts | 300° |
| 2026-04-25 05:08 | 37.82945 | -122.34999 | 5407 ft | 85 kts | 301° |
| 2026-04-25 05:08 | 37.83025 | -122.35749 | 5528 ft | 94 kts | 270° |
| 2026-04-25 05:09 | 37.83106 | -122.36526 | 5720 ft | 85 kts | 301° |
| 2026-04-25 05:09 | 37.83368 | -122.37209 | 5861 ft | 86 kts | 302° |
| 2026-04-25 05:09 | 37.83637 | -122.37875 | 6015 ft | 85 kts | 305° |
| 2026-04-25 05:09 | 37.83908 | -122.38580 | 6054 ft | 90 kts | 301° |
| 2026-04-25 05:10 | 37.84204 | -122.39320 | 6066 ft | 96 kts | 303° |
| 2026-04-25 05:10 | 37.84517 | -122.40111 | 6060 ft | 103 kts | 299° |
| 2026-04-25 05:10 | 37.84714 | -122.40709 | 6098 ft | 102 kts | 296° |
| 2026-04-25 05:10 | 37.84975 | -122.41583 | 6034 ft | 108 kts | 296° |
| 2026-04-25 05:11 | 37.85240 | -122.42476 | 6015 ft | 107 kts | 296° |
| 2026-04-25 05:11 | 37.85510 | -122.43351 | 6011 ft | 107 kts | 297° |
| 2026-04-25 05:11 | 37.85793 | -122.44220 | 6010 ft | 107 kts | 297° |
| 2026-04-25 05:12 | 37.86329 | -122.45996 | 6010 ft | 106 kts | 298° |
| 2026-04-25 05:12 | 37.86644 | -122.46845 | 5984 ft | 108 kts | 299° |
| 2026-04-25 05:12 | 37.86942 | -122.47700 | 6009 ft | 106 kts | 299° |
| 2026-04-25 05:12 | 37.87278 | -122.48546 | 5982 ft | 107 kts | 304° |
| 2026-04-25 05:13 | 37.87658 | -122.49348 | 6010 ft | 104 kts | 306° |
| 2026-04-25 05:13 | 37.88058 | -122.50126 | 6016 ft | 104 kts | 308° |
| 2026-04-25 05:13 | 37.88464 | -122.50898 | 6016 ft | 105 kts | 308° |
| 2026-04-25 05:13 | 37.88870 | -122.51663 | 6016 ft | 106 kts | 308° |
| 2026-04-25 05:14 | 37.89281 | -122.52434 | 6015 ft | 106 kts | 308° |
| 2026-04-25 05:14 | 37.89697 | -122.53210 | 6015 ft | 106 kts | 308° |
| 2026-04-25 05:14 | 37.90115 | -122.53988 | 6026 ft | 105 kts | 308° |
| 2026-04-25 05:15 | 37.90948 | -122.55530 | 6026 ft | 106 kts | 308° |
| 2026-04-25 05:15 | 37.91369 | -122.56305 | 6025 ft | 106 kts | 308° |
| 2026-04-25 05:15 | 37.91788 | -122.57078 | 6024 ft | 107 kts | 308° |
| 2026-04-25 05:15 | 37.92212 | -122.57855 | 6023 ft | 107 kts | 308° |
| 2026-04-25 05:16 | 37.92637 | -122.58637 | 6022 ft | 107 kts | 308° |
| 2026-04-25 05:16 | 37.93059 | -122.59411 | 6021 ft | 108 kts | 308° |
| 2026-04-25 05:16 | 37.93490 | -122.60201 | 6021 ft | 108 kts | 308° |
| 2026-04-25 05:16 | 37.93918 | -122.60984 | 6020 ft | 108 kts | 308° |
| 2026-04-25 05:17 | 37.94347 | -122.61769 | 6019 ft | 108 kts | 308° |
| 2026-04-25 05:17 | 37.94778 | -122.62559 | 6019 ft | 109 kts | 307° |
| 2026-04-25 05:17 | 37.95207 | -122.63342 | 6018 ft | 109 kts | 307° |
| 2026-04-25 05:17 | 37.95644 | -122.64141 | 6018 ft | 109 kts | 307° |
| 2026-04-25 05:18 | 37.96073 | -122.64927 | 6018 ft | 109 kts | 307° |
| 2026-04-25 05:18 | 37.96502 | -122.65720 | 6017 ft | 109 kts | 306° |
| 2026-04-25 05:18 | 37.96930 | -122.66522 | 6017 ft | 109 kts | 306° |
| 2026-04-25 05:18 | 37.97355 | -122.67319 | 6017 ft | 109 kts | 306° |
| 2026-04-25 05:19 | 37.97778 | -122.68108 | 6017 ft | 109 kts | 306° |
| 2026-04-25 05:19 | 37.98208 | -122.68906 | 6017 ft | 109 kts | 306° |
| 2026-04-25 05:19 | 37.98639 | -122.69706 | 6017 ft | 109 kts | 306° |
| 2026-04-25 05:19 | 37.99071 | -122.70503 | 6017 ft | 109 kts | 308° |
| 2026-04-25 05:20 | 37.99680 | -122.70985 | 6015 ft | 105 kts | 352° |
| 2026-04-25 05:20 | 38.00375 | -122.70770 | 6015 ft | 104 kts | 37° |
| 2026-04-25 05:20 | 38.00840 | -122.70073 | 6018 ft | 104 kts | 53° |
| 2026-04-25 05:20 | 38.01275 | -122.69342 | 6017 ft | 104 kts | 50° |
| 2026-04-25 05:21 | 38.01751 | -122.68633 | 5966 ft | 109 kts | 47° |
| 2026-04-25 05:21 | 38.02296 | -122.67902 | 5822 ft | 118 kts | 45° |
| 2026-04-25 05:21 | 38.02889 | -122.67158 | 5676 ft | 123 kts | 43° |
| 2026-04-25 05:21 | 38.03530 | -122.66400 | 5526 ft | 126 kts | 41° |
| 2026-04-25 05:22 | 38.04148 | -122.65706 | 5369 ft | 114 kts | 40° |
| 2026-04-25 05:22 | 38.04732 | -122.65078 | 5213 ft | 107 kts | 39° |
| 2026-04-25 05:22 | 38.05293 | -122.64495 | 5057 ft | 102 kts | 38° |
| 2026-04-25 05:22 | 38.05833 | -122.63945 | 4904 ft | 98 kts | 38° |
| 2026-04-25 05:23 | 38.06371 | -122.63406 | 4749 ft | 96 kts | 38° |
| 2026-04-25 05:23 | 38.06895 | -122.62886 | 4581 ft | 97 kts | 37° |
| 2026-04-25 05:23 | 38.07433 | -122.62354 | 4404 ft | 97 kts | 37° |
| 2026-04-25 05:23 | 38.07968 | -122.61827 | 4229 ft | 98 kts | 37° |
| 2026-04-25 05:24 | 38.08507 | -122.61298 | 4063 ft | 97 kts | 37° |
| 2026-04-25 05:24 | 38.09012 | -122.60801 | 4005 ft | 87 kts | 37° |
| 2026-04-25 05:24 | 38.09484 | -122.60268 | 3826 ft | 90 kts | 45° |
| 2026-04-25 05:24 | 38.09891 | -122.59714 | 3682 ft | 85 kts | 36° |
| 2026-04-25 05:25 | 38.10442 | -122.59393 | 3476 ft | 85 kts | 17° |
| 2026-04-25 05:25 | 38.11037 | -122.59198 | 3224 ft | 91 kts | 12° |
| 2026-04-25 05:25 | 38.11641 | -122.59107 | 3061 ft | 87 kts | 356° |
| 2026-04-25 05:25 | 38.12244 | -122.59238 | 2874 ft | 86 kts | 350° |
| 2026-04-25 05:26 | 38.12822 | -122.59390 | 3000 ft | 87 kts | 346° |
| 2026-04-25 05:26 | 38.13403 | -122.59572 | 2999 ft | 85 kts | 343° |
| 2026-04-25 05:26 | 38.13949 | -122.59901 | 2956 ft | 87 kts | 332° |
| 2026-04-25 05:26 | 38.14475 | -122.60273 | 2952 ft | 86 kts | 332° |
| 2026-04-25 05:27 | 38.14998 | -122.60664 | 3025 ft | 89 kts | 329° |
| 2026-04-25 05:27 | 38.15524 | -122.61079 | 3067 ft | 87 kts | 328° |
| 2026-04-25 05:27 | 38.16005 | -122.61518 | 3090 ft | 86 kts | 325° |
| 2026-04-25 05:27 | 38.16513 | -122.61955 | 3070 ft | 89 kts | 328° |
| 2026-04-25 05:28 | 38.17028 | -122.62392 | 3061 ft | 91 kts | 328° |
| 2026-04-25 05:28 | 38.17584 | -122.62807 | 3050 ft | 91 kts | 332° |
| 2026-04-25 05:28 | 38.18150 | -122.63194 | 3169 ft | 92 kts | 333° |
| 2026-04-25 05:28 | 38.18713 | -122.63561 | 3406 ft | 87 kts | 332° |
| 2026-04-25 05:29 | 38.19216 | -122.63896 | 3655 ft | 81 kts | 333° |
| 2026-04-25 05:29 | 38.19732 | -122.64251 | 3813 ft | 86 kts | 338° |
| 2026-04-25 05:29 | 38.20289 | -122.64293 | 4007 ft | 84 kts | 12° |
| 2026-04-25 05:29 | 38.20858 | -122.64129 | 4213 ft | 82 kts | 13° |
| 2026-04-25 05:30 | 38.21426 | -122.63945 | 4384 ft | 85 kts | 16° |
| 2026-04-25 05:30 | 38.21981 | -122.63746 | 4581 ft | 83 kts | 13° |
| 2026-04-25 05:30 | 38.22559 | -122.63602 | 4754 ft | 84 kts | 10° |
| 2026-04-25 05:30 | 38.23124 | -122.63460 | 4935 ft | 84 kts | 13° |
| 2026-04-25 05:31 | 38.23697 | -122.63298 | 5111 ft | 84 kts | 12° |
| 2026-04-25 05:31 | 38.24277 | -122.63161 | 5281 ft | 85 kts | 8° |
| 2026-04-25 05:31 | 38.24859 | -122.63118 | 5450 ft | 85 kts | 2° |
| 2026-04-25 05:31 | 38.25449 | -122.63007 | 5614 ft | 85 kts | 13° |
| 2026-04-25 05:32 | 38.26016 | -122.62830 | 5785 ft | 85 kts | 12° |
| 2026-04-25 05:32 | 38.26604 | -122.62695 | 5943 ft | 85 kts | 13° |
| 2026-04-25 05:32 | 38.27184 | -122.62528 | 5997 ft | 91 kts | 15° |
| 2026-04-25 05:32 | 38.27829 | -122.62307 | 6037 ft | 101 kts | 17° |
| 2026-04-25 05:33 | 38.28524 | -122.62073 | 6057 ft | 107 kts | 16° |
| 2026-04-25 05:33 | 38.29264 | -122.61828 | 6033 ft | 112 kts | 15° |
| 2026-04-25 05:33 | 38.30027 | -122.61613 | 6020 ft | 113 kts | 14° |
| 2026-04-25 05:33 | 38.30786 | -122.61392 | 6043 ft | 111 kts | 13° |
| 2026-04-25 05:34 | 38.31553 | -122.61201 | 6019 ft | 114 kts | 14° |
| 2026-04-25 05:34 | 38.32320 | -122.60962 | 6048 ft | 114 kts | 17° |
| 2026-04-25 05:34 | 38.33102 | -122.60717 | 6055 ft | 116 kts | 15° |
| 2026-04-25 05:34 | 38.33887 | -122.60490 | 6072 ft | 114 kts | 15° |
| 2026-04-25 05:35 | 38.34650 | -122.60271 | 6043 ft | 115 kts | 15° |
| 2026-04-25 05:35 | 38.35443 | -122.60067 | 6013 ft | 116 kts | 14° |
| 2026-04-25 05:35 | 38.36227 | -122.59853 | 5988 ft | 116 kts | 16° |
| 2026-04-25 05:35 | 38.37020 | -122.59606 | 5959 ft | 116 kts | 18° |
| 2026-04-25 05:36 | 38.37807 | -122.59376 | 5966 ft | 116 kts | 16° |
| 2026-04-25 05:36 | 38.38630 | -122.59228 | 5881 ft | 124 kts | 353° |
| 2026-04-25 05:36 | 38.39388 | -122.59772 | 5821 ft | 127 kts | 316° |
| 2026-04-25 05:36 | 38.39972 | -122.60564 | 5861 ft | 121 kts | 313° |
| 2026-04-25 05:37 | 38.40539 | -122.61285 | 5946 ft | 118 kts | 319° |
| 2026-04-25 05:37 | 38.41157 | -122.61987 | 5935 ft | 119 kts | 318° |
| 2026-04-25 05:37 | 38.41772 | -122.62714 | 5934 ft | 123 kts | 318° |
| 2026-04-25 05:37 | 38.42399 | -122.63457 | 5951 ft | 121 kts | 320° |
| 2026-04-25 05:38 | 38.43072 | -122.64100 | 5909 ft | 120 kts | 328° |
| 2026-04-25 05:38 | 38.43802 | -122.64630 | 5749 ft | 123 kts | 337° |
| 2026-04-25 05:38 | 38.44573 | -122.65103 | 5604 ft | 124 kts | 327° |
| 2026-04-25 05:38 | 38.45249 | -122.65789 | 5454 ft | 124 kts | 322° |
| 2026-04-25 05:39 | 38.45916 | -122.66482 | 5302 ft | 123 kts | 323° |
| 2026-04-25 05:39 | 38.46582 | -122.67149 | 5153 ft | 123 kts | 323° |
| 2026-04-25 05:39 | 38.47258 | -122.67813 | 5029 ft | 121 kts | 324° |
| 2026-04-25 05:39 | 38.47922 | -122.68460 | 5009 ft | 117 kts | 324° |
| 2026-04-25 05:40 | 38.48558 | -122.69076 | 5007 ft | 113 kts | 324° |
| 2026-04-25 05:40 | 38.49175 | -122.69674 | 5007 ft | 110 kts | 324° |
| 2026-04-25 05:40 | 38.49785 | -122.70267 | 5007 ft | 109 kts | 324° |
| 2026-04-25 05:40 | 38.50377 | -122.70840 | 5008 ft | 107 kts | 324° |
| 2026-04-25 05:41 | 38.50976 | -122.71420 | 5008 ft | 107 kts | 324° |
| 2026-04-25 05:41 | 38.51564 | -122.71988 | 5008 ft | 106 kts | 324° |
| 2026-04-25 05:41 | 38.52149 | -122.72554 | 5008 ft | 106 kts | 324° |
| 2026-04-25 05:41 | 38.52736 | -122.73122 | 5008 ft | 105 kts | 324° |
| 2026-04-25 05:42 | 38.53318 | -122.73685 | 5008 ft | 105 kts | 324° |
| 2026-04-25 05:42 | 38.53903 | -122.74251 | 5008 ft | 105 kts | 324° |
| 2026-04-25 05:42 | 38.54486 | -122.74816 | 5008 ft | 105 kts | 324° |
| 2026-04-25 05:42 | 38.55071 | -122.75382 | 5008 ft | 105 kts | 324° |
| 2026-04-25 05:43 | 38.55647 | -122.75940 | 5008 ft | 105 kts | 324° |
| 2026-04-25 05:43 | 38.56229 | -122.76504 | 5008 ft | 105 kts | 324° |
| 2026-04-25 05:43 | 38.56811 | -122.77067 | 5008 ft | 105 kts | 324° |
| 2026-04-25 05:43 | 38.57394 | -122.77631 | 5008 ft | 105 kts | 324° |
| 2026-04-25 05:44 | 38.57975 | -122.78194 | 5008 ft | 105 kts | 324° |
| 2026-04-25 05:44 | 38.58560 | -122.78760 | 5008 ft | 105 kts | 324° |
| 2026-04-25 05:44 | 38.59135 | -122.79318 | 5008 ft | 105 kts | 324° |
| 2026-04-25 05:44 | 38.59724 | -122.79889 | 5010 ft | 108 kts | 324° |
| 2026-04-25 05:45 | 38.60336 | -122.80482 | 5010 ft | 110 kts | 324° |
| 2026-04-25 05:45 | 38.60948 | -122.81075 | 5009 ft | 111 kts | 324° |
| 2026-04-25 05:45 | 38.61572 | -122.81679 | 5009 ft | 112 kts | 324° |
| 2026-04-25 05:45 | 38.62199 | -122.82288 | 5009 ft | 113 kts | 324° |
| 2026-04-25 05:46 | 38.62822 | -122.82893 | 5009 ft | 113 kts | 324° |
| 2026-04-25 05:46 | 38.63453 | -122.83505 | 5009 ft | 114 kts | 324° |
| 2026-04-25 05:46 | 38.64084 | -122.84116 | 5009 ft | 114 kts | 324° |
| 2026-04-25 05:46 | 38.64713 | -122.84728 | 5009 ft | 114 kts | 324° |
| 2026-04-25 05:47 | 38.65349 | -122.85345 | 5009 ft | 114 kts | 324° |
| 2026-04-25 05:47 | 38.65984 | -122.85962 | 5009 ft | 114 kts | 324° |
| 2026-04-25 05:47 | 38.66613 | -122.86573 | 5009 ft | 114 kts | 324° |
| 2026-04-25 05:47 | 38.67250 | -122.87193 | 5009 ft | 114 kts | 324° |
| 2026-04-25 05:48 | 38.67886 | -122.87810 | 5009 ft | 114 kts | 324° |
| 2026-04-25 05:48 | 38.68517 | -122.88423 | 5009 ft | 114 kts | 324° |
| 2026-04-25 05:48 | 38.69147 | -122.89036 | 5009 ft | 114 kts | 324° |
| 2026-04-25 05:48 | 38.69778 | -122.89649 | 5009 ft | 114 kts | 324° |
| 2026-04-25 05:49 | 38.70418 | -122.90271 | 5009 ft | 114 kts | 324° |
| 2026-04-25 05:49 | 38.71048 | -122.90884 | 5009 ft | 114 kts | 324° |
| 2026-04-25 05:49 | 38.71681 | -122.91500 | 5009 ft | 114 kts | 324° |
| 2026-04-25 05:49 | 38.72308 | -122.92110 | 5009 ft | 114 kts | 324° |
| 2026-04-25 05:50 | 38.72938 | -122.92725 | 5009 ft | 114 kts | 324° |
| 2026-04-25 05:50 | 38.73569 | -122.93339 | 5009 ft | 114 kts | 324° |
| 2026-04-25 05:50 | 38.74196 | -122.93950 | 5008 ft | 113 kts | 324° |
| 2026-04-25 05:50 | 38.74824 | -122.94562 | 5008 ft | 113 kts | 324° |
| 2026-04-25 05:51 | 38.75456 | -122.95177 | 5008 ft | 113 kts | 324° |
| 2026-04-25 05:51 | 38.76080 | -122.95785 | 5008 ft | 113 kts | 324° |
| 2026-04-25 05:51 | 38.76651 | -122.96472 | 5008 ft | 113 kts | 308° |
| 2026-04-25 05:51 | 38.77110 | -122.97292 | 5008 ft | 113 kts | 306° |
| 2026-04-25 05:52 | 38.77561 | -122.98129 | 5007 ft | 113 kts | 306° |
| 2026-04-25 05:52 | 38.78005 | -122.98955 | 5007 ft | 113 kts | 306° |
| 2026-04-25 05:52 | 38.78460 | -122.99787 | 5006 ft | 112 kts | 311° |
| 2026-04-25 05:52 | 38.79116 | -123.00236 | 5004 ft | 109 kts | 356° |
| 2026-04-25 05:53 | 38.79815 | -122.99977 | 5004 ft | 105 kts | 40° |
| 2026-04-25 05:53 | 38.80154 | -122.99177 | 5004 ft | 104 kts | 84° |
| 2026-04-25 05:53 | 38.79940 | -122.98309 | 5004 ft | 105 kts | 128° |
| 2026-04-25 05:53 | 38.79304 | -122.97888 | 5006 ft | 107 kts | 169° |
| 2026-04-25 05:54 | 38.78615 | -122.97571 | 5008 ft | 106 kts | 150° |
| 2026-04-25 05:54 | 38.77978 | -122.97139 | 5004 ft | 100 kts | 149° |
| 2026-04-25 05:54 | 38.76784 | -122.96361 | 5006 ft | 93 kts | 153° |
| 2026-04-25 05:55 | 38.76144 | -122.96154 | 4936 ft | 99 kts | 168° |
| 2026-04-25 05:55 | 38.75444 | -122.96034 | 4815 ft | 103 kts | 170° |
| 2026-04-25 05:55 | 38.74731 | -122.95913 | 4665 ft | 101 kts | 169° |
| 2026-04-25 05:55 | 38.74053 | -122.95794 | 4510 ft | 95 kts | 169° |
| 2026-04-25 05:56 | 38.73415 | -122.95677 | 4357 ft | 91 kts | 169° |
| 2026-04-25 05:56 | 38.72800 | -122.95563 | 4205 ft | 88 kts | 169° |
| 2026-04-25 05:56 | 38.72199 | -122.95450 | 4053 ft | 86 kts | 168° |
| 2026-04-25 05:56 | 38.71606 | -122.95338 | 3901 ft | 85 kts | 168° |
| 2026-04-25 05:57 | 38.71027 | -122.95228 | 3751 ft | 84 kts | 168° |
| 2026-04-25 05:57 | 38.70454 | -122.95119 | 3601 ft | 83 kts | 168° |
| 2026-04-25 05:57 | 38.69886 | -122.95010 | 3450 ft | 82 kts | 168° |
| 2026-04-25 05:57 | 38.69325 | -122.94904 | 3328 ft | 79 kts | 168° |
| 2026-04-25 05:58 | 38.68774 | -122.94798 | 3325 ft | 77 kts | 168° |
| 2026-04-25 05:58 | 38.68262 | -122.94701 | 3310 ft | 72 kts | 168° |
| 2026-04-25 05:58 | 38.67750 | -122.94601 | 3312 ft | 77 kts | 168° |
| 2026-04-25 05:58 | 38.67200 | -122.94494 | 3312 ft | 81 kts | 168° |
| 2026-04-25 05:59 | 38.66656 | -122.94392 | 3307 ft | 77 kts | 168° |
| 2026-04-25 05:59 | 38.66135 | -122.94294 | 3306 ft | 74 kts | 168° |
| 2026-04-25 05:59 | 38.65633 | -122.94199 | 3307 ft | 72 kts | 168° |
| 2026-04-25 05:59 | 38.65150 | -122.94058 | 3272 ft | 72 kts | 154° |
| 2026-04-25 06:00 | 38.64684 | -122.93730 | 3133 ft | 79 kts | 146° |
| 2026-04-25 06:00 | 38.64231 | -122.93342 | 2980 ft | 76 kts | 143° |
| 2026-04-25 06:00 | 38.63811 | -122.92952 | 2827 ft | 74 kts | 142° |
| 2026-04-25 06:00 | 38.63405 | -122.92562 | 2675 ft | 72 kts | 141° |
| 2026-04-25 06:01 | 38.63010 | -122.92177 | 2524 ft | 71 kts | 141° |
| 2026-04-25 06:01 | 38.62622 | -122.91794 | 2374 ft | 70 kts | 141° |
| 2026-04-25 06:01 | 38.62233 | -122.91410 | 2224 ft | 70 kts | 141° |
| 2026-04-25 06:01 | 38.61850 | -122.91030 | 2074 ft | 70 kts | 141° |
| 2026-04-25 06:02 | 38.61460 | -122.90653 | 1925 ft | 70 kts | 142° |
| 2026-04-25 06:02 | 38.61069 | -122.90279 | 1778 ft | 70 kts | 142° |
| 2026-04-25 06:02 | 38.60679 | -122.89905 | 1719 ft | 69 kts | 142° |
| 2026-04-25 06:02 | 38.60294 | -122.89542 | 1706 ft | 69 kts | 143° |
| 2026-04-25 06:03 | 38.59913 | -122.89170 | 1691 ft | 69 kts | 140° |
| 2026-04-25 06:03 | 38.59539 | -122.88779 | 1684 ft | 68 kts | 139° |
| 2026-04-25 06:03 | 38.59186 | -122.88377 | 1702 ft | 68 kts | 136° |
| 2026-04-25 06:03 | 38.58809 | -122.87992 | 1711 ft | 69 kts | 143° |
| 2026-04-25 06:04 | 38.58414 | -122.87653 | 1711 ft | 66 kts | 144° |
| 2026-04-25 06:04 | 38.58029 | -122.87289 | 1594 ft | 69 kts | 137° |
| 2026-04-25 06:04 | 38.57679 | -122.86874 | 1470 ft | 70 kts | 140° |
| 2026-04-25 06:04 | 38.57289 | -122.86521 | 1320 ft | 69 kts | 143° |
| 2026-04-25 06:05 | 38.56913 | -122.86140 | 1150 ft | 68 kts | 139° |
| 2026-04-25 06:05 | 38.56530 | -122.85782 | 977 ft | 69 kts | 144° |
| 2026-04-25 06:05 | 38.56156 | -122.85392 | 812 ft | 68 kts | 137° |
| 2026-04-25 06:05 | 38.55779 | -122.85028 | 637 ft | 69 kts | 143° |
| 2026-04-25 06:06 | 38.55419 | -122.84649 | 640 ft | 67 kts | 141° |
| 2026-04-25 06:06 | 38.55022 | -122.84321 | 602 ft | 68 kts | 143° |
| 2026-04-25 06:06 | 38.54669 | -122.83930 | 614 ft | 66 kts | 138° |
| 2026-04-25 06:06 | 38.54292 | -122.83562 | 624 ft | 68 kts | 143° |
| 2026-04-25 06:07 | 38.53924 | -122.83188 | 626 ft | 68 kts | 140° |
| 2026-04-25 06:07 | 38.53555 | -122.82819 | 618 ft | 61 kts | 137° |
| 2026-04-25 06:07 | 38.53251 | -122.82456 | 531 ft | 60 kts | 135° |
| 2026-04-25 06:07 | 38.52951 | -122.82123 | 447 ft | 57 kts | 146° |
| 2026-04-25 06:08 | 38.52611 | -122.81870 | 382 ft | 54 kts | 148° |
| 2026-04-25 06:08 | 38.52262 | -122.81655 | 288 ft | 55 kts | 152° |
| 2026-04-25 06:08 | 38.51904 | -122.81462 | 207 ft | 56 kts | 154° |
| 2026-04-25 06:08 | 38.51559 | -122.81274 | 131 ft | 51 kts | 156° |
| 2026-04-25 06:09 | 38.51420 | -122.81156 | 130 ft | 13 kts | 85° |
| 2026-04-25 06:09 | 38.51434 | -122.81076 | 130 ft | 0 kts | 87° |
| 2026-04-25 06:10 | 38.51434 | -122.81052 | 130 ft | 10 kts | 96° |
| 2026-04-25 06:10 | 38.51421 | -122.80921 | 130 ft | 17 kts | 90° |
| 2026-04-25 06:10 | 38.51423 | -122.80790 | 130 ft | 13 kts | 97° |
| 2026-04-25 06:10 | 38.51419 | -122.80679 | 130 ft | 12 kts | 83° |
| 2026-04-25 06:11 | 38.51363 | -122.80630 | 130 ft | 12 kts | 180° |
| 2026-04-25 06:11 | 38.51264 | -122.80578 | 130 ft | 13 kts | 140° |
| 2026-04-25 06:11 | 38.51237 | -122.80536 | 130 ft | 0 kts | 347° |